메인 페이지
METAR-TAF:

METAR-TAF

공항 :

North Las Vegas Airport

노스라스베이거스, 네바다, 미국

위도: 36-12-42N, 경도: 115-11-45W, 고도: 672m

현재 날씨관측

예보는 33분 전, 22:53시(UTC)에 발표되었습니다.
남남서13kt, 순간 최대 풍속 23kt
온도 39°C
습도 13%
기압 1010 hPa
시정: 16.1km
맑음

METAR: KVGT 212253Z 21013G23KT 10SM CLR 39/06 A2982 RMK AO2 PK WND 22026/2231 SLP079 T03940056

시각: 16:26 (23:26 UTC)

예보

예보는 6 시간 3분 전, 17:23시(UTC)에 발표되었습니다.
예보 대상 시간: 21일 18시부터 22일 18시까지 (UTC)
남남서15kt, 순간 최대 풍속 25kt
시정: 10km
고도 11000ft 상공 구름 보통
21일 2030시부터 (UTC)
남남서20kt, 순간 최대 풍속 30kt
시정: 10km
고도 11000ft 상공 구름 보통
고도 22000ft 상공 구름 보통
22일 0600시부터 (UTC)
남남서14kt, 순간 최대 풍속 24kt
시정: 10km
고도 11000ft 상공 구름 조금
고도 20000ft 상공 구름 보통
22일 1000시부터 (UTC)
10kt
시정: 10km
고도 22000ft 상공 구름 조금

TAF: KVGT 211723Z 2118/2218 20015G25KT P6SM SCT110 FM212030 21020G30KT P6SM SCT110 SCT220 FM220600 20014G24KT P6SM FEW110 SCT200 FM221000 19010KT P6SM FEW220

4,000개 이상의 공항 관측 자료 및 예보 (METAR 및 TAF 보고).

지도상에서 검색 가능한 기상관측소가 노란 점과 빨간 점으로 표시되어 있습니다.

기상관측소 명을 보려면 표시 위로 마우스를 이동하세요.

날씨 관측과 예보를 보려면 클릭하세요.

지도 변경 : 확대하려면 엑스 표시가 있는 녹색 버튼, 축소하려면 빼기 표시가 있는 녹색 버튼, 다음 페이지의 지도를 보려면 녹색 화살표를 클릭하세요.


METAR-TAF: